createdAt,value
2023-03-02T00:04:50.432Z,35.35
2023-03-02T00:10:06.956Z,37.30
2023-03-02T00:15:22.583Z,35.67
2023-03-02T00:20:38.962Z,34.38
2023-03-02T00:25:55.061Z,35.63
2023-03-02T00:31:11.453Z,32.42
2023-03-02T00:36:27.183Z,30.77
2023-03-02T00:41:42.714Z,29.27
2023-03-02T00:46:58.708Z,30.40
2023-03-02T00:52:14.899Z,31.60
2023-03-02T00:57:30.519Z,30.63
2023-03-02T01:02:46.097Z,33.17
2023-03-02T01:08:01.911Z,32.47
2023-03-02T01:13:18.520Z,30.10
2023-03-02T01:18:38.875Z,28.30
2023-03-02T01:23:54.418Z,32.83
2023-03-02T01:29:11.738Z,34.17
2023-03-02T01:34:27.503Z,33.22
2023-03-02T01:39:42.827Z,31.42
2023-03-02T01:44:59.749Z,30.48
2023-03-02T01:50:23.447Z,31.65
2023-03-02T01:55:40.216Z,32.95
2023-03-02T02:00:58.007Z,33.72
2023-03-02T02:06:24.783Z,32.92
2023-03-02T02:11:40.407Z,31.20
2023-03-02T02:16:56.788Z,31.33
2023-03-02T02:22:15.732Z,30.23
2023-03-02T02:27:34.320Z,31.60
2023-03-02T02:32:53.295Z,33.70
2023-03-02T02:38:11.612Z,31.30
2023-03-02T02:43:31.238Z,36.90
2023-03-02T02:48:46.816Z,36.10
2023-03-02T02:54:04.338Z,35.33
2023-03-02T02:59:29.201Z,33.83
2023-03-02T03:04:44.889Z,33.53
2023-03-02T03:10:24.769Z,33.58
2023-03-02T03:15:40.995Z,35.50
2023-03-02T03:20:56.644Z,34.72
2023-03-02T03:26:12.352Z,34.60
2023-03-02T03:31:28.971Z,34.42
2023-03-02T03:36:44.642Z,36.55
2023-03-02T03:42:00.580Z,34.53
2023-03-02T03:47:16.004Z,33.65
2023-03-02T03:52:31.857Z,34.65
2023-03-02T03:57:47.715Z,34.85
2023-03-02T04:03:03.778Z,34.78
2023-03-02T04:08:20.011Z,34.65
2023-03-02T04:13:35.536Z,35.65
2023-03-02T04:18:50.988Z,36.72
2023-03-02T04:24:08.067Z,34.63
2023-03-02T04:29:24.172Z,33.10
2023-03-02T04:34:39.601Z,31.98
2023-03-02T04:39:55.767Z,34.92
2023-03-02T04:45:12.022Z,33.00
2023-03-02T04:50:27.724Z,33.13
2023-03-02T04:55:43.718Z,33.67
2023-03-02T05:01:02.642Z,34.55
2023-03-02T05:06:21.994Z,34.90
2023-03-02T05:11:38.590Z,37.47
2023-03-02T05:16:54.592Z,35.03
2023-03-02T05:22:10.422Z,34.83
2023-03-02T05:27:25.882Z,35.38
2023-03-02T05:32:41.816Z,34.03
2023-03-02T05:37:58.051Z,34.33
2023-03-02T05:43:17.796Z,34.50
2023-03-02T05:48:33.319Z,33.47
2023-03-02T05:53:49.535Z,33.85
2023-03-02T05:59:05.241Z,32.22
2023-03-02T06:04:21.108Z,32.13
2023-03-02T06:09:38.417Z,33.92
2023-03-02T06:14:54.196Z,33.58
2023-03-02T06:20:11.912Z,32.80
2023-03-02T06:25:27.895Z,36.17
2023-03-02T06:30:43.160Z,33.92
2023-03-02T06:35:58.863Z,33.85
2023-03-02T06:41:14.905Z,34.35
2023-03-02T06:46:30.780Z,35.45
2023-03-02T06:51:46.831Z,36.13
2023-03-02T06:57:02.593Z,35.40
2023-03-02T07:02:18.202Z,37.05
2023-03-02T07:07:33.764Z,33.08
2023-03-02T07:12:49.557Z,35.92
2023-03-02T07:18:05.096Z,35.50
2023-03-02T07:23:20.913Z,35.95
2023-03-02T07:28:39.701Z,35.88
2023-03-02T07:33:55.195Z,37.63
2023-03-02T07:39:10.664Z,36.60
2023-03-02T07:44:26.222Z,47.22
2023-03-02T07:49:41.775Z,39.70
2023-03-02T07:54:57.969Z,39.88
2023-03-02T08:00:13.985Z,37.25
2023-03-02T08:05:29.404Z,35.80
2023-03-02T08:10:45.027Z,32.55
2023-03-02T08:16:02.165Z,34.78
2023-03-02T08:21:20.093Z,35.92
2023-03-02T08:26:35.552Z,38.80
2023-03-02T08:31:51.670Z,33.90
2023-03-02T08:37:07.403Z,31.48
2023-03-02T08:42:22.850Z,31.95
2023-03-02T08:47:38.495Z,33.35
2023-03-02T08:52:54.389Z,34.55
2023-03-02T08:58:09.772Z,33.55
2023-03-02T09:03:25.131Z,32.08
2023-03-02T09:08:40.974Z,30.42
2023-03-02T09:13:56.426Z,30.35
2023-03-02T09:19:13.944Z,29.40
2023-03-02T09:24:29.338Z,30.35
2023-03-02T09:29:44.704Z,32.30
2023-03-02T09:35:00.585Z,31.48
2023-03-02T09:40:21.858Z,30.58
2023-03-02T09:45:55.657Z,29.00
2023-03-02T09:51:33.435Z,25.48
2023-03-02T09:56:54.645Z,26.63
2023-03-02T10:07:39.244Z,24.63
2023-03-02T10:13:27.368Z,27.70
2023-03-02T10:18:49.735Z,24.48
2023-03-02T10:24:35.274Z,27.08
2023-03-02T10:30:03.760Z,24.33
2023-03-02T10:35:23.403Z,25.73
2023-03-02T10:40:43.519Z,25.37
2023-03-02T10:46:11.369Z,21.90
2023-03-02T10:51:30.755Z,20.50
2023-03-02T10:56:52.455Z,21.10
2023-03-02T11:02:17.463Z,15.82
2023-03-02T11:07:33.413Z,18.90
2023-03-02T11:12:51.343Z,16.38
2023-03-02T11:18:11.987Z,20.52
2023-03-02T11:23:41.453Z,19.50
2023-03-02T11:29:03.024Z,20.15
2023-03-02T11:34:59.130Z,18.73
2023-03-02T11:40:27.037Z,20.48
2023-03-02T11:45:48.565Z,20.90
2023-03-02T11:51:13.643Z,18.92
2023-03-02T11:56:33.714Z,16.77
2023-03-02T12:01:53.168Z,20.27
2023-03-02T12:07:24.970Z,17.65
2023-03-02T12:12:58.035Z,19.05
2023-03-02T12:18:22.973Z,17.08
2023-03-02T12:23:47.646Z,18.08
2023-03-02T12:29:24.700Z,17.38
2023-03-02T12:34:51.428Z,18.17
2023-03-02T12:40:39.274Z,18.33
2023-03-02T12:46:33.631Z,17.42
2023-03-02T12:51:54.243Z,16.33
2023-03-02T12:57:18.840Z,17.33
2023-03-02T13:02:36.572Z,16.50
2023-03-02T13:08:06.461Z,17.13
2023-03-02T13:13:42.476Z,16.90
2023-03-02T13:19:06.407Z,16.65
2023-03-02T13:24:44.866Z,17.30
2023-03-02T13:30:24.902Z,17.13
2023-03-02T13:35:47.724Z,16.73
2023-03-02T13:41:04.174Z,14.48
2023-03-02T13:46:20.428Z,15.65
2023-03-02T13:51:40.399Z,16.73
2023-03-02T13:56:58.635Z,15.50
2023-03-02T14:02:27.132Z,13.15
2023-03-02T14:07:42.640Z,14.48
2023-03-02T14:13:25.602Z,15.82
2023-03-02T14:18:45.129Z,13.50
2023-03-02T14:24:00.792Z,17.15
2023-03-02T14:29:31.950Z,15.85
2023-03-02T14:34:48.120Z,15.75
2023-03-02T14:40:04.147Z,16.15
2023-03-02T14:45:21.578Z,16.00
2023-03-02T14:50:42.344Z,13.85
2023-03-02T14:55:58.256Z,15.50
2023-03-02T15:01:14.043Z,17.60
2023-03-02T15:06:33.432Z,17.38
2023-03-02T15:11:49.414Z,16.60
2023-03-02T15:17:05.707Z,16.98
2023-03-02T15:22:21.314Z,17.23
2023-03-02T15:27:36.954Z,15.60
2023-03-02T15:32:54.998Z,17.25
2023-03-02T15:38:11.442Z,14.93
2023-03-02T15:43:27.604Z,14.07
2023-03-02T15:48:43.452Z,15.85
2023-03-02T15:53:59.601Z,16.88
2023-03-02T15:59:16.347Z,15.88
2023-03-02T16:04:33.784Z,14.50
2023-03-02T16:09:49.417Z,14.93
2023-03-02T16:15:06.272Z,13.60
2023-03-02T16:20:21.671Z,12.20
2023-03-02T16:25:43.618Z,13.20
2023-03-02T16:31:07.926Z,14.95
2023-03-02T16:36:23.856Z,13.35
2023-03-02T16:41:42.470Z,13.43
2023-03-02T16:46:58.163Z,12.52
2023-03-02T16:52:14.054Z,14.52
2023-03-02T16:57:29.614Z,15.02
2023-03-02T17:02:46.493Z,14.48
2023-03-02T17:08:03.025Z,15.95
2023-03-02T17:13:18.780Z,15.07
2023-03-02T17:18:34.947Z,16.35
2023-03-02T17:23:50.618Z,14.35
2023-03-02T17:29:08.088Z,14.80
2023-03-02T17:34:23.566Z,16.15
2023-03-02T17:39:39.125Z,17.50
2023-03-02T17:44:54.855Z,16.55
2023-03-02T17:50:12.188Z,16.73
2023-03-02T17:55:27.869Z,16.83
2023-03-02T18:00:43.809Z,16.77
2023-03-02T18:06:00.111Z,20.33
2023-03-02T18:11:21.476Z,18.23
2023-03-02T18:16:37.584Z,15.80
2023-03-02T18:21:54.328Z,17.33
2023-03-02T18:27:09.949Z,17.63
2023-03-02T18:32:26.154Z,17.23
2023-03-02T18:37:42.068Z,17.35
2023-03-02T18:42:58.163Z,16.63
2023-03-02T18:48:13.988Z,16.88
2023-03-02T18:53:29.941Z,17.95
2023-03-02T18:58:45.940Z,19.05
2023-03-02T19:04:02.482Z,19.30
2023-03-02T19:09:18.081Z,18.92
2023-03-02T19:14:35.430Z,18.05
2023-03-02T19:19:51.588Z,18.50
2023-03-02T19:25:08.029Z,17.98
2023-03-02T19:30:27.003Z,17.52
2023-03-02T19:35:43.550Z,18.25
2023-03-02T19:41:00.583Z,18.98
2023-03-02T19:46:17.795Z,19.20
2023-03-02T19:51:33.551Z,20.33
2023-03-02T19:56:53.755Z,21.20
2023-03-02T20:02:09.539Z,20.67
2023-03-02T20:07:25.428Z,20.55
2023-03-02T20:12:41.439Z,19.30
2023-03-02T20:17:59.575Z,22.27
2023-03-02T20:23:16.234Z,19.42
2023-03-02T20:28:33.220Z,20.50
2023-03-02T20:33:52.897Z,21.50
2023-03-02T20:39:30.960Z,20.47
2023-03-02T20:44:47.041Z,19.75
2023-03-02T20:50:06.360Z,19.55
2023-03-02T20:55:22.100Z,18.55
2023-03-02T21:00:39.711Z,18.95
2023-03-02T21:05:56.708Z,20.30
2023-03-02T21:11:16.588Z,20.58
2023-03-02T21:16:37.389Z,19.27
2023-03-02T21:21:55.535Z,19.17
2023-03-02T21:27:11.500Z,21.23
2023-03-02T21:32:27.448Z,20.88
2023-03-02T21:37:44.714Z,19.38
2023-03-02T21:43:02.016Z,20.83
2023-03-02T21:48:18.117Z,21.73
2023-03-02T21:53:34.594Z,21.67
2023-03-02T21:58:53.057Z,20.10
2023-03-02T22:04:08.564Z,22.98
2023-03-02T22:09:24.021Z,24.83
2023-03-02T22:14:39.922Z,23.50
2023-03-02T22:19:55.613Z,22.58
2023-03-02T22:25:17.582Z,21.17
2023-03-02T22:30:33.439Z,20.17
2023-03-02T22:35:51.012Z,20.27
2023-03-02T22:41:13.302Z,19.13
2023-03-02T22:46:28.962Z,19.48
2023-03-02T22:51:45.493Z,19.10
2023-03-02T22:57:03.297Z,17.58
2023-03-02T23:02:22.658Z,21.17
2023-03-02T23:07:38.251Z,20.40
2023-03-02T23:12:53.970Z,20.48
2023-03-02T23:18:23.196Z,19.95
2023-03-02T23:23:39.071Z,19.20
2023-03-02T23:28:55.111Z,19.75
2023-03-02T23:34:12.027Z,19.75
2023-03-02T23:39:27.747Z,20.13
2023-03-02T23:44:43.720Z,19.35
2023-03-02T23:49:59.828Z,19.02
2023-03-02T23:55:15.695Z,18.33
